sensor_id;sensor_type;location;lat;lon;timestamp;temperature;humidity
5419;DHT22;2732;52.092;11.556;2024-01-30T00:01:38;2.80;99.90
5419;DHT22;2732;52.092;11.556;2024-01-30T00:06:39;2.70;99.90
5419;DHT22;2732;52.092;11.556;2024-01-30T00:11:39;2.70;99.90
5419;DHT22;2732;52.092;11.556;2024-01-30T00:16:40;2.60;99.90
5419;DHT22;2732;52.092;11.556;2024-01-30T00:21:41;2.60;99.90
5419;DHT22;2732;52.092;11.556;2024-01-30T00:26:41;2.50;99.90
5419;DHT22;2732;52.092;11.556;2024-01-30T00:31:42;2.50;99.90
5419;DHT22;2732;52.092;11.556;2024-01-30T00:36:42;2.40;99.90
5419;DHT22;2732;52.092;11.556;2024-01-30T00:41:43;2.50;99.90
5419;DHT22;2732;52.092;11.556;2024-01-30T00:46:43;2.50;99.90
5419;DHT22;2732;52.092;11.556;2024-01-30T00:51:44;2.50;99.90
5419;DHT22;2732;52.092;11.556;2024-01-30T00:56:45;2.50;99.90
5419;DHT22;2732;52.092;11.556;2024-01-30T01:01:46;2.50;99.90
5419;DHT22;2732;52.092;11.556;2024-01-30T01:06:47;2.50;99.90
5419;DHT22;2732;52.092;11.556;2024-01-30T01:11:47;2.50;99.90
5419;DHT22;2732;52.092;11.556;2024-01-30T01:16:48;2.50;99.90
5419;DHT22;2732;52.092;11.556;2024-01-30T01:21:49;2.40;99.90
5419;DHT22;2732;52.092;11.556;2024-01-30T01:26:49;2.30;99.90
5419;DHT22;2732;52.092;11.556;2024-01-30T01:31:50;2.30;99.90
5419;DHT22;2732;52.092;11.556;2024-01-30T01:36:51;2.20;99.90
5419;DHT22;2732;52.092;11.556;2024-01-30T01:41:51;2.20;99.90
5419;DHT22;2732;52.092;11.556;2024-01-30T01:46:52;2.10;99.90
5419;DHT22;2732;52.092;11.556;2024-01-30T01:51:55;2.10;99.90
5419;DHT22;2732;52.092;11.556;2024-01-30T01:56:57;2.10;99.90
5419;DHT22;2732;52.092;11.556;2024-01-30T02:01:57;2.10;99.90
5419;DHT22;2732;52.092;11.556;2024-01-30T02:06:58;2.10;99.90
5419;DHT22;2732;52.092;11.556;2024-01-30T02:11:59;2.10;99.90
5419;DHT22;2732;52.092;11.556;2024-01-30T02:17:00;2.10;99.90
5419;DHT22;2732;52.092;11.556;2024-01-30T02:22:01;2.10;99.90
5419;DHT22;2732;52.092;11.556;2024-01-30T02:27:01;2.10;99.90
5419;DHT22;2732;52.092;11.556;2024-01-30T02:32:02;2.10;99.90
5419;DHT22;2732;52.092;11.556;2024-01-30T02:37:03;2.10;99.90
5419;DHT22;2732;52.092;11.556;2024-01-30T02:42:04;2.00;99.90
5419;DHT22;2732;52.092;11.556;2024-01-30T02:47:05;2.00;99.90
5419;DHT22;2732;52.092;11.556;2024-01-30T02:52:06;2.00;99.90
5419;DHT22;2732;52.092;11.556;2024-01-30T02:57:07;2.00;99.90
5419;DHT22;2732;52.092;11.556;2024-01-30T03:02:07;2.00;99.90
5419;DHT22;2732;52.092;11.556;2024-01-30T03:07:08;2.00;99.90
5419;DHT22;2732;52.092;11.556;2024-01-30T03:12:09;2.00;99.90
5419;DHT22;2732;52.092;11.556;2024-01-30T03:17:10;2.00;99.90
5419;DHT22;2732;52.092;11.556;2024-01-30T03:22:10;1.90;99.90
5419;DHT22;2732;52.092;11.556;2024-01-30T03:27:11;1.90;99.90
5419;DHT22;2732;52.092;11.556;2024-01-30T03:32:12;1.90;99.90
5419;DHT22;2732;52.092;11.556;2024-01-30T03:37:12;1.90;99.90
5419;DHT22;2732;52.092;11.556;2024-01-30T03:42:13;1.90;99.90
5419;DHT22;2732;52.092;11.556;2024-01-30T03:47:14;1.80;99.90
5419;DHT22;2732;52.092;11.556;2024-01-30T03:52:14;1.80;99.90
5419;DHT22;2732;52.092;11.556;2024-01-30T03:57:15;1.80;99.90
5419;DHT22;2732;52.092;11.556;2024-01-30T04:02:15;1.70;99.90
5419;DHT22;2732;52.092;11.556;2024-01-30T04:07:16;1.70;99.90
5419;DHT22;2732;52.092;11.556;2024-01-30T04:12:17;1.70;99.90
5419;DHT22;2732;52.092;11.556;2024-01-30T04:17:17;1.70;99.90
5419;DHT22;2732;52.092;11.556;2024-01-30T04:22:18;1.60;99.90
5419;DHT22;2732;52.092;11.556;2024-01-30T04:27:18;1.60;99.90
5419;DHT22;2732;52.092;11.556;2024-01-30T04:32:19;1.60;99.90
5419;DHT22;2732;52.092;11.556;2024-01-30T04:37:20;1.60;99.90
5419;DHT22;2732;52.092;11.556;2024-01-30T04:42:20;1.60;99.90
5419;DHT22;2732;52.092;11.556;2024-01-30T04:47:21;1.60;99.90
5419;DHT22;2732;52.092;11.556;2024-01-30T04:52:21;1.50;99.90
5419;DHT22;2732;52.092;11.556;2024-01-30T04:57:22;1.50;99.90
5419;DHT22;2732;52.092;11.556;2024-01-30T05:02:23;1.50;99.90
5419;DHT22;2732;52.092;11.556;2024-01-30T05:07:24;1.50;99.90
5419;DHT22;2732;52.092;11.556;2024-01-30T05:12:26;1.50;99.90
5419;DHT22;2732;52.092;11.556;2024-01-30T05:17:27;1.50;99.90
5419;DHT22;2732;52.092;11.556;2024-01-30T05:22:27;1.50;99.90
5419;DHT22;2732;52.092;11.556;2024-01-30T05:27:28;1.40;99.90
5419;DHT22;2732;52.092;11.556;2024-01-30T05:32:28;1.40;99.90
5419;DHT22;2732;52.092;11.556;2024-01-30T05:37:29;1.40;99.90
5419;DHT22;2732;52.092;11.556;2024-01-30T05:42:29;1.50;99.90
5419;DHT22;2732;52.092;11.556;2024-01-30T05:47:30;1.50;99.90
5419;DHT22;2732;52.092;11.556;2024-01-30T05:52:31;1.50;99.90
5419;DHT22;2732;52.092;11.556;2024-01-30T05:57:31;1.50;99.90
5419;DHT22;2732;52.092;11.556;2024-01-30T06:02:32;1.60;99.90
5419;DHT22;2732;52.092;11.556;2024-01-30T06:07:36;1.50;99.90
5419;DHT22;2732;52.092;11.556;2024-01-30T06:12:37;1.50;99.90
5419;DHT22;2732;52.092;11.556;2024-01-30T06:17:38;1.60;99.90
5419;DHT22;2732;52.092;11.556;2024-01-30T06:22:39;1.60;99.90
5419;DHT22;2732;52.092;11.556;2024-01-30T06:27:40;1.60;99.90
5419;DHT22;2732;52.092;11.556;2024-01-30T06:32:40;1.60;99.90
5419;DHT22;2732;52.092;11.556;2024-01-30T06:37:41;1.60;99.90
5419;DHT22;2732;52.092;11.556;2024-01-30T06:42:41;1.50;99.90
5419;DHT22;2732;52.092;11.556;2024-01-30T06:47:42;1.50;99.90
5419;DHT22;2732;52.092;11.556;2024-01-30T06:52:43;1.40;99.90
5419;DHT22;2732;52.092;11.556;2024-01-30T06:57:44;1.40;99.90
5419;DHT22;2732;52.092;11.556;2024-01-30T07:02:44;1.30;99.90
5419;DHT22;2732;52.092;11.556;2024-01-30T07:07:45;1.30;99.90
5419;DHT22;2732;52.092;11.556;2024-01-30T07:12:45;1.30;99.90
5419;DHT22;2732;52.092;11.556;2024-01-30T07:17:46;1.20;99.90
5419;DHT22;2732;52.092;11.556;2024-01-30T07:22:46;1.20;99.90
5419;DHT22;2732;52.092;11.556;2024-01-30T07:27:48;1.20;99.90
5419;DHT22;2732;52.092;11.556;2024-01-30T07:32:48;1.20;99.90
5419;DHT22;2732;52.092;11.556;2024-01-30T07:37:49;1.20;99.90
5419;DHT22;2732;52.092;11.556;2024-01-30T07:42:49;1.30;99.90
5419;DHT22;2732;52.092;11.556;2024-01-30T07:47:51;1.30;99.90
5419;DHT22;2732;52.092;11.556;2024-01-30T07:52:52;1.30;99.90
5419;DHT22;2732;52.092;11.556;2024-01-30T07:57:55;1.40;99.90
5419;DHT22;2732;52.092;11.556;2024-01-30T08:02:56;1.40;99.90
5419;DHT22;2732;52.092;11.556;2024-01-30T08:07:56;1.50;99.90
5419;DHT22;2732;52.092;11.556;2024-01-30T08:12:57;1.50;99.90
5419;DHT22;2732;52.092;11.556;2024-01-30T08:17:58;1.70;99.90
5419;DHT22;2732;52.092;11.556;2024-01-30T08:22:59;1.80;99.90
5419;DHT22;2732;52.092;11.556;2024-01-30T08:28:00;1.90;99.90
5419;DHT22;2732;52.092;11.556;2024-01-30T08:33:01;2.00;99.90
5419;DHT22;2732;52.092;11.556;2024-01-30T08:38:02;2.10;99.90
5419;DHT22;2732;52.092;11.556;2024-01-30T08:43:03;2.30;99.90
5419;DHT22;2732;52.092;11.556;2024-01-30T08:48:04;2.40;99.90
5419;DHT22;2732;52.092;11.556;2024-01-30T08:53:05;2.60;99.90
5419;DHT22;2732;52.092;11.556;2024-01-30T08:58:06;2.80;99.90
5419;DHT22;2732;52.092;11.556;2024-01-30T09:03:06;2.90;99.90
5419;DHT22;2732;52.092;11.556;2024-01-30T09:08:07;3.10;99.90
5419;DHT22;2732;52.092;11.556;2024-01-30T09:13:07;3.30;99.90
5419;DHT22;2732;52.092;11.556;2024-01-30T09:18:09;3.50;99.90
5419;DHT22;2732;52.092;11.556;2024-01-30T09:23:09;3.70;99.90
5419;DHT22;2732;52.092;11.556;2024-01-30T09:28:11;3.90;99.90
5419;DHT22;2732;52.092;11.556;2024-01-30T09:33:11;4.10;99.90
5419;DHT22;2732;52.092;11.556;2024-01-30T09:38:12;4.30;99.90
5419;DHT22;2732;52.092;11.556;2024-01-30T09:43:17;4.50;99.90
5419;DHT22;2732;52.092;11.556;2024-01-30T09:48:23;4.70;99.90
5419;DHT22;2732;52.092;11.556;2024-01-30T09:53:25;4.90;99.90
5419;DHT22;2732;52.092;11.556;2024-01-30T09:58:26;5.10;99.90
5419;DHT22;2732;52.092;11.556;2024-01-30T10:03:26;5.30;99.90
5419;DHT22;2732;52.092;11.556;2024-01-30T10:08:27;5.40;99.90
5419;DHT22;2732;52.092;11.556;2024-01-30T10:13:30;5.60;99.90
5419;DHT22;2732;52.092;11.556;2024-01-30T10:18:30;5.80;99.90
5419;DHT22;2732;52.092;11.556;2024-01-30T10:23:31;6.00;99.90
5419;DHT22;2732;52.092;11.556;2024-01-30T10:28:32;6.10;99.90
5419;DHT22;2732;52.092;11.556;2024-01-30T10:33:32;6.30;99.90
5419;DHT22;2732;52.092;11.556;2024-01-30T10:38:33;6.40;99.90
5419;DHT22;2732;52.092;11.556;2024-01-30T10:43:40;6.60;99.90
5419;DHT22;2732;52.092;11.556;2024-01-30T10:48:43;6.70;99.90
5419;DHT22;2732;52.092;11.556;2024-01-30T10:53:49;6.90;99.90
5419;DHT22;2732;52.092;11.556;2024-01-30T10:58:51;7.00;99.90
5419;DHT22;2732;52.092;11.556;2024-01-30T11:03:53;7.10;99.90
5419;DHT22;2732;52.092;11.556;2024-01-30T11:09:05;7.20;99.90
5419;DHT22;2732;52.092;11.556;2024-01-30T11:14:10;7.20;99.90
5419;DHT22;2732;52.092;11.556;2024-01-30T11:19:11;7.30;99.90
5419;DHT22;2732;52.092;11.556;2024-01-30T11:24:14;7.30;99.90
5419;DHT22;2732;52.092;11.556;2024-01-30T11:29:15;7.40;99.90
5419;DHT22;2732;52.092;11.556;2024-01-30T11:34:18;7.40;99.90
5419;DHT22;2732;52.092;11.556;2024-01-30T11:39:20;7.50;99.90
5419;DHT22;2732;52.092;11.556;2024-01-30T11:44:23;7.60;99.90
5419;DHT22;2732;52.092;11.556;2024-01-30T11:49:23;7.70;99.90
5419;DHT22;2732;52.092;11.556;2024-01-30T11:54:24;7.80;99.90
5419;DHT22;2732;52.092;11.556;2024-01-30T11:59:25;8.00;99.90
5419;DHT22;2732;52.092;11.556;2024-01-30T12:04:28;8.20;99.90
5419;DHT22;2732;52.092;11.556;2024-01-30T12:09:30;8.30;99.90
5419;DHT22;2732;52.092;11.556;2024-01-30T12:14:30;8.50;99.90
5419;DHT22;2732;52.092;11.556;2024-01-30T12:19:31;8.70;99.90
5419;DHT22;2732;52.092;11.556;2024-01-30T12:24:32;8.90;99.90
5419;DHT22;2732;52.092;11.556;2024-01-30T12:29:33;9.00;99.90
5419;DHT22;2732;52.092;11.556;2024-01-30T12:34:33;9.10;99.90
5419;DHT22;2732;52.092;11.556;2024-01-30T12:39:35;9.20;99.90
5419;DHT22;2732;52.092;11.556;2024-01-30T12:44:35;9.40;99.90
5419;DHT22;2732;52.092;11.556;2024-01-30T12:49:36;9.50;99.90
5419;DHT22;2732;52.092;11.556;2024-01-30T12:54:38;9.60;99.90
5419;DHT22;2732;52.092;11.556;2024-01-30T12:59:39;9.60;99.90
5419;DHT22;2732;52.092;11.556;2024-01-30T13:04:40;9.70;99.90
5419;DHT22;2732;52.092;11.556;2024-01-30T13:09:41;9.90;99.90
5419;DHT22;2732;52.092;11.556;2024-01-30T13:14:41;9.90;99.90
5419;DHT22;2732;52.092;11.556;2024-01-30T13:19:42;10.00;99.90
5419;DHT22;2732;52.092;11.556;2024-01-30T13:24:43;10.20;99.90
5419;DHT22;2732;52.092;11.556;2024-01-30T13:29:44;10.30;99.90
5419;DHT22;2732;52.092;11.556;2024-01-30T13:34:44;10.30;99.90
5419;DHT22;2732;52.092;11.556;2024-01-30T13:39:45;10.40;99.90
5419;DHT22;2732;52.092;11.556;2024-01-30T13:44:46;10.50;99.90
5419;DHT22;2732;52.092;11.556;2024-01-30T13:49:46;10.50;99.90
5419;DHT22;2732;52.092;11.556;2024-01-30T13:54:47;10.50;99.90
5419;DHT22;2732;52.092;11.556;2024-01-30T13:59:48;10.50;99.90
5419;DHT22;2732;52.092;11.556;2024-01-30T14:04:48;10.50;99.90
5419;DHT22;2732;52.092;11.556;2024-01-30T14:09:49;10.50;99.90
5419;DHT22;2732;52.092;11.556;2024-01-30T14:14:50;10.40;99.90
5419;DHT22;2732;52.092;11.556;2024-01-30T14:19:50;10.50;99.90
5419;DHT22;2732;52.092;11.556;2024-01-30T14:24:51;10.50;99.90
5419;DHT22;2732;52.092;11.556;2024-01-30T14:29:51;10.50;99.90
5419;DHT22;2732;52.092;11.556;2024-01-30T14:34:52;10.40;99.90
5419;DHT22;2732;52.092;11.556;2024-01-30T14:39:52;10.40;99.90
5419;DHT22;2732;52.092;11.556;2024-01-30T14:44:53;10.30;99.90
5419;DHT22;2732;52.092;11.556;2024-01-30T14:49:54;10.30;99.90
5419;DHT22;2732;52.092;11.556;2024-01-30T14:54:54;10.20;99.90
5419;DHT22;2732;52.092;11.556;2024-01-30T14:59:55;10.20;99.90
5419;DHT22;2732;52.092;11.556;2024-01-30T15:04:55;10.10;99.90
5419;DHT22;2732;52.092;11.556;2024-01-30T15:09:57;10.00;99.90
5419;DHT22;2732;52.092;11.556;2024-01-30T15:14:58;9.90;99.90
5419;DHT22;2732;52.092;11.556;2024-01-30T15:19:59;9.80;99.90
5419;DHT22;2732;52.092;11.556;2024-01-30T15:25:00;9.70;99.90
5419;DHT22;2732;52.092;11.556;2024-01-30T15:30:01;9.60;99.90
5419;DHT22;2732;52.092;11.556;2024-01-30T15:35:02;9.60;99.90
5419;DHT22;2732;52.092;11.556;2024-01-30T15:40:04;9.50;99.90
5419;DHT22;2732;52.092;11.556;2024-01-30T15:45:06;9.40;99.90
5419;DHT22;2732;52.092;11.556;2024-01-30T15:50:07;9.30;99.90
5419;DHT22;2732;52.092;11.556;2024-01-30T15:55:09;9.20;99.90
5419;DHT22;2732;52.092;11.556;2024-01-30T16:00:13;9.20;99.90
5419;DHT22;2732;52.092;11.556;2024-01-30T16:05:15;9.00;99.90
5419;DHT22;2732;52.092;11.556;2024-01-30T16:10:15;8.90;99.90
5419;DHT22;2732;52.092;11.556;2024-01-30T16:15:17;8.90;99.90
5419;DHT22;2732;52.092;11.556;2024-01-30T16:20:18;8.80;99.90
5419;DHT22;2732;52.092;11.556;2024-01-30T16:25:19;8.70;99.90
5419;DHT22;2732;52.092;11.556;2024-01-30T16:30:21;8.60;99.90
5419;DHT22;2732;52.092;11.556;2024-01-30T16:35:22;8.50;99.90
5419;DHT22;2732;52.092;11.556;2024-01-30T16:40:22;8.40;99.90
5419;DHT22;2732;52.092;11.556;2024-01-30T16:45:23;8.30;99.90
5419;DHT22;2732;52.092;11.556;2024-01-30T16:50:23;8.20;99.90
5419;DHT22;2732;52.092;11.556;2024-01-30T16:55:24;8.10;99.90
5419;DHT22;2732;52.092;11.556;2024-01-30T17:00:26;8.00;99.90
5419;DHT22;2732;52.092;11.556;2024-01-30T17:05:28;8.00;99.90
5419;DHT22;2732;52.092;11.556;2024-01-30T17:10:29;7.90;99.90
5419;DHT22;2732;52.092;11.556;2024-01-30T17:15:30;7.80;99.90
5419;DHT22;2732;52.092;11.556;2024-01-30T17:20:30;7.80;99.90
5419;DHT22;2732;52.092;11.556;2024-01-30T17:25:31;7.70;99.90
5419;DHT22;2732;52.092;11.556;2024-01-30T17:30:32;7.70;99.90
5419;DHT22;2732;52.092;11.556;2024-01-30T17:35:32;7.70;99.90
5419;DHT22;2732;52.092;11.556;2024-01-30T17:40:33;7.60;99.90
5419;DHT22;2732;52.092;11.556;2024-01-30T17:45:34;7.60;99.90
5419;DHT22;2732;52.092;11.556;2024-01-30T17:50:38;7.60;99.90
5419;DHT22;2732;52.092;11.556;2024-01-30T17:55:38;7.50;99.90
5419;DHT22;2732;52.092;11.556;2024-01-30T18:00:39;7.50;99.90
5419;DHT22;2732;52.092;11.556;2024-01-30T18:05:40;7.50;99.90
5419;DHT22;2732;52.092;11.556;2024-01-30T18:10:40;7.50;99.90
5419;DHT22;2732;52.092;11.556;2024-01-30T18:15:41;7.50;99.90
5419;DHT22;2732;52.092;11.556;2024-01-30T18:20:42;7.50;99.90
5419;DHT22;2732;52.092;11.556;2024-01-30T18:25:42;7.50;99.90
5419;DHT22;2732;52.092;11.556;2024-01-30T18:30:43;7.50;99.90
5419;DHT22;2732;52.092;11.556;2024-01-30T18:35:44;7.50;99.90
5419;DHT22;2732;52.092;11.556;2024-01-30T18:40:45;7.50;99.90
5419;DHT22;2732;52.092;11.556;2024-01-30T18:45:53;7.50;99.90
5419;DHT22;2732;52.092;11.556;2024-01-30T18:50:54;7.50;99.90
5419;DHT22;2732;52.092;11.556;2024-01-30T18:55:56;7.40;99.90
5419;DHT22;2732;52.092;11.556;2024-01-30T19:00:58;7.40;99.90
5419;DHT22;2732;52.092;11.556;2024-01-30T19:05:58;7.40;99.90
5419;DHT22;2732;52.092;11.556;2024-01-30T19:10:59;7.40;99.90
5419;DHT22;2732;52.092;11.556;2024-01-30T19:16:00;7.40;99.90
5419;DHT22;2732;52.092;11.556;2024-01-30T19:21:02;7.40;99.90
5419;DHT22;2732;52.092;11.556;2024-01-30T19:26:03;7.30;99.90
5419;DHT22;2732;52.092;11.556;2024-01-30T19:31:04;7.30;99.90
5419;DHT22;2732;52.092;11.556;2024-01-30T19:36:05;7.30;99.90
5419;DHT22;2732;52.092;11.556;2024-01-30T19:41:10;7.30;99.90
5419;DHT22;2732;52.092;11.556;2024-01-30T19:46:12;7.30;99.90
5419;DHT22;2732;52.092;11.556;2024-01-30T19:51:12;7.30;99.90
5419;DHT22;2732;52.092;11.556;2024-01-30T19:56:13;7.20;99.90
5419;DHT22;2732;52.092;11.556;2024-01-30T20:01:16;7.20;99.90
5419;DHT22;2732;52.092;11.556;2024-01-30T20:06:18;7.20;99.90
5419;DHT22;2732;52.092;11.556;2024-01-30T20:11:19;7.20;99.90
5419;DHT22;2732;52.092;11.556;2024-01-30T20:16:20;7.10;99.90
5419;DHT22;2732;52.092;11.556;2024-01-30T20:21:21;7.10;99.90
5419;DHT22;2732;52.092;11.556;2024-01-30T20:26:22;7.10;99.90
5419;DHT22;2732;52.092;11.556;2024-01-30T20:31:22;7.10;99.90
5419;DHT22;2732;52.092;11.556;2024-01-30T20:36:23;7.10;99.90
5419;DHT22;2732;52.092;11.556;2024-01-30T20:41:24;7.00;99.90
5419;DHT22;2732;52.092;11.556;2024-01-30T20:46:24;7.00;99.90
5419;DHT22;2732;52.092;11.556;2024-01-30T20:51:25;7.00;99.90
5419;DHT22;2732;52.092;11.556;2024-01-30T20:56:25;7.10;99.90
5419;DHT22;2732;52.092;11.556;2024-01-30T21:01:26;7.10;99.90
5419;DHT22;2732;52.092;11.556;2024-01-30T21:06:27;7.10;99.90
5419;DHT22;2732;52.092;11.556;2024-01-30T21:11:28;7.20;99.90
5419;DHT22;2732;52.092;11.556;2024-01-30T21:16:28;7.20;99.90
5419;DHT22;2732;52.092;11.556;2024-01-30T21:21:29;7.20;99.90
5419;DHT22;2732;52.092;11.556;2024-01-30T21:26:30;7.30;99.90
5419;DHT22;2732;52.092;11.556;2024-01-30T21:31:30;7.30;99.90
5419;DHT22;2732;52.092;11.556;2024-01-30T21:36:31;7.40;99.90
5419;DHT22;2732;52.092;11.556;2024-01-30T21:41:32;7.40;99.90
5419;DHT22;2732;52.092;11.556;2024-01-30T21:46:32;7.40;99.90
5419;DHT22;2732;52.092;11.556;2024-01-30T21:51:33;7.40;99.90
5419;DHT22;2732;52.092;11.556;2024-01-30T21:56:34;7.30;99.90
5419;DHT22;2732;52.092;11.556;2024-01-30T22:01:34;7.30;99.90
5419;DHT22;2732;52.092;11.556;2024-01-30T22:06:35;7.30;99.90
5419;DHT22;2732;52.092;11.556;2024-01-30T22:11:39;7.30;99.90
5419;DHT22;2732;52.092;11.556;2024-01-30T22:16:40;7.30;99.90
5419;DHT22;2732;52.092;11.556;2024-01-30T22:21:41;7.30;99.90
5419;DHT22;2732;52.092;11.556;2024-01-30T22:26:42;7.20;99.90
5419;DHT22;2732;52.092;11.556;2024-01-30T22:31:43;7.20;99.90
5419;DHT22;2732;52.092;11.556;2024-01-30T22:36:44;7.10;99.90
5419;DHT22;2732;52.092;11.556;2024-01-30T22:41:45;7.00;99.90
5419;DHT22;2732;52.092;11.556;2024-01-30T22:46:46;7.00;99.90
5419;DHT22;2732;52.092;11.556;2024-01-30T22:51:47;7.00;99.90
5419;DHT22;2732;52.092;11.556;2024-01-30T22:56:49;7.00;99.90
5419;DHT22;2732;52.092;11.556;2024-01-30T23:01:50;7.00;99.90
5419;DHT22;2732;52.092;11.556;2024-01-30T23:06:50;7.00;99.90
5419;DHT22;2732;52.092;11.556;2024-01-30T23:11:51;7.00;99.90
5419;DHT22;2732;52.092;11.556;2024-01-30T23:16:52;7.00;99.90
5419;DHT22;2732;52.092;11.556;2024-01-30T23:21:52;7.10;99.90
5419;DHT22;2732;52.092;11.556;2024-01-30T23:26:53;7.10;99.90
5419;DHT22;2732;52.092;11.556;2024-01-30T23:31:54;7.10;99.90
5419;DHT22;2732;52.092;11.556;2024-01-30T23:36:54;7.20;99.90
5419;DHT22;2732;52.092;11.556;2024-01-30T23:41:55;7.20;99.90
5419;DHT22;2732;52.092;11.556;2024-01-30T23:46:55;7.20;99.90
5419;DHT22;2732;52.092;11.556;2024-01-30T23:51:56;7.20;99.90
5419;DHT22;2732;52.092;11.556;2024-01-30T23:56:58;7.30;99.90
